NCAR-RAP Real-Time Weather Data

Output produced by METARs form (02 September 2014  11:30 UTC)
found at http://weather.rap.ucar.edu/surface/
 
Conditions at: KLOU observed 02 September 2014  10:53 UTC
Temperature: 25.6°C (78°F)
Dewpoint: 20.6°C (69°F) [RH = 74%]
Pressure (altimeter): 29.96 inches Hg (1014.6 mb)
[Sea-level pressure: 1013.8 mb]
Winds: from the S (180 degrees) at 7 MPH (6 knots; 3.1 m/s)
Visibility: 10 or more miles (16+ km)
Ceiling: at least 12,000 feet AGL
Clouds: few clouds at 7000 feet AGL
few clouds at 9500 feet AGL
Present Weather: no significant weather observed at this time
KLOU 021053Z 18006KT 10SM FEW070 FEW095 26/21 A2996 RMK AO2 LTG DSNT W-N SLP138 T02560206